Time;durP1;ratioP1;P1;durP2;ratioP2;P2;SDS_P1;SDS_P2;PMS_P1;PMS_P2;Temp;Humidity;BMP_temperature;BMP_pressure;BME280_temperature;BME280_humidity;BME280_pressure;Samples;Min_cycle;Max_cycle;Signal;HPM_P1;HPM_P2
2022/03/23 00:00:25;;;;;;;36.37;33.27;;;;;;;;;;5014409;28;20437;-86
2022/03/23 00:02:52;;;;;;;36.60;33.47;;;;;;;;;;5014775;28;20483;-86
2022/03/23 00:05:21;;;;;;;36.70;33.30;;;;;;;;;;5014224;28;20415;-86
2022/03/23 00:07:48;;;;;;;36.13;33.10;;;;;;;;;;5014637;28;20437;-85
2022/03/23 00:10:15;;;;;;;34.87;32.07;;;;;;;;;;5014665;28;20210;-85
2022/03/23 00:12:44;;;;;;;35.57;32.57;;;;;;;;;;5014223;28;20508;-86
2022/03/23 00:15:12;;;;;;;35.50;32.60;;;;;;;;;;5014792;28;20492;-85
2022/03/23 00:17:40;;;;;;;34.47;31.70;;;;;;;;;;5014588;28;20445;-86
2022/03/23 00:20:08;;;;;;;34.53;31.73;;;;;;;;;;5014347;28;20441;-86
2022/03/23 00:22:36;;;;;;;38.30;34.70;;;;;;;;;;5014141;28;20912;-86
2022/03/23 00:25:04;;;;;;;36.23;33.33;;;;;;;;;;5014470;28;20445;-86
2022/03/23 00:27:32;;;;;;;36.30;33.03;;;;;;;;;;5014249;28;20460;-86
2022/03/23 00:29:59;;;;;;;34.47;31.47;;;;;;;;;;5014188;28;20469;-86
2022/03/23 00:32:26;;;;;;;33.90;31.20;;;;;;;;;;5014013;28;20449;-86
2022/03/23 00:34:54;;;;;;;36.17;33.10;;;;;;;;;;5014069;28;20876;-86
2022/03/23 00:37:21;;;;;;;34.90;31.70;;;;;;;;;;5014377;28;20441;-85
2022/03/23 00:39:50;;;;;;;35.60;32.57;;;;;;;;;;5013713;28;20523;-86
2022/03/23 00:42:18;;;;;;;33.87;31.20;;;;;;;;;;5014164;28;20432;-86
2022/03/23 00:44:45;;;;;;;36.43;33.30;;;;;;;;;;5014320;28;20461;-86
2022/03/23 00:47:12;;;;;;;36.17;33.30;;;;;;;;;;5014448;28;20431;-86
2022/03/23 00:49:40;;;;;;;34.47;31.70;;;;;;;;;;5014343;28;20420;-86
2022/03/23 00:52:07;;;;;;;34.67;32.03;;;;;;;;;;5014621;28;20416;-86
2022/03/23 00:54:35;;;;;;;33.77;31.00;;;;;;;;;;5013540;28;20487;-86
2022/03/23 00:57:04;;;;;;;34.10;31.50;;;;;;;;;;5013894;28;20516;-86
2022/03/23 00:59:32;;;;;;;33.30;30.10;;;;;;;;;;5013969;28;20516;-84
2022/03/23 01:01:59;;;;;;;32.20;29.80;;;;;;;;;;5014058;28;20544;-86
2022/03/23 01:04:26;;;;;;;33.67;31.10;;;;;;;;;;5014122;28;20867;-86
2022/03/23 01:06:54;;;;;;;34.08;31.20;;;;;;;;;;4996899;28;20442;-86
2022/03/23 01:09:23;;;;;;;33.53;30.83;;;;;;;;;;5017800;28;20285;-86
2022/03/23 01:11:51;;;;;;;34.33;31.43;;;;;;;;;;5018057;28;20603;-86
2022/03/23 01:14:21;;;;;;;33.37;30.87;;;;;;;;;;5018044;28;20513;-87
2022/03/23 01:16:50;;;;;;;33.65;31.00;;;;;;;;;;5000371;28;20540;-86
2022/03/23 01:19:17;;;;;;;34.07;31.33;;;;;;;;;;5017862;28;20201;-84
2022/03/23 01:21:44;;;;;;;34.13;31.33;;;;;;;;;;5017460;28;20442;-86
2022/03/23 01:24:12;;;;;;;32.80;30.30;;;;;;;;;;5018224;28;20441;-86
2022/03/23 01:26:39;;;;;;;34.63;31.93;;;;;;;;;;5017210;28;20268;-86
2022/03/23 01:29:08;;;;;;;34.37;31.57;;;;;;;;;;5017591;28;20433;-85
2022/03/23 01:31:37;;;;;;;33.73;31.03;;;;;;;;;;5017402;28;20457;-86
2022/03/23 01:34:04;;;;;;;35.53;32.60;;;;;;;;;;4999969;28;20825;-86
2022/03/23 01:36:33;;;;;;;33.90;31.27;;;;;;;;;;5017494;28;20671;-86
2022/03/23 01:39:01;;;;;;;33.13;30.63;;;;;;;;;;5017224;28;20498;-86
2022/03/23 01:41:28;;;;;;;33.40;30.53;;;;;;;;;;5017628;28;20445;-86
2022/03/23 01:43:56;;;;;;;33.65;31.05;;;;;;;;;;5017454;28;21005;-85
2022/03/23 01:46:26;;;;;;;34.37;31.33;;;;;;;;;;5017327;28;20248;-86
2022/03/23 01:48:54;;;;;;;35.00;32.00;;;;;;;;;;5017312;28;20440;-86
2022/03/23 01:51:22;;;;;;;33.43;30.53;;;;;;;;;;5017057;28;20457;-86
2022/03/23 01:53:49;;;;;;;35.23;32.50;;;;;;;;;;4999369;28;21068;-85
2022/03/23 01:56:17;;;;;;;35.10;32.40;;;;;;;;;;5016684;28;20479;-86
2022/03/23 01:58:44;;;;;;;33.38;30.83;;;;;;;;;;5016986;28;20440;-86
2022/03/23 02:01:12;;;;;;;34.25;31.60;;;;;;;;;;5016966;28;20210;-86
2022/03/23 02:03:39;;;;;;;34.97;32.10;;;;;;;;;;5016835;28;20213;-86
2022/03/23 02:06:08;;;;;;;34.57;31.87;;;;;;;;;;5017004;28;20445;-86
2022/03/23 02:08:36;;;;;;;33.28;30.75;;;;;;;;;;4999489;28;20951;-86
2022/03/23 02:11:03;;;;;;;34.85;31.77;;;;;;;;;;5016971;28;20533;-86
2022/03/23 02:13:30;;;;;;;33.70;31.00;;;;;;;;;;5016644;28;20849;-86
2022/03/23 02:15:58;;;;;;;33.73;31.13;;;;;;;;;;5016705;28;20426;-86
2022/03/23 02:18:25;;;;;;;32.50;29.90;;;;;;;;;;5015786;28;21238;-86
2022/03/23 02:20:52;;;;;;;32.50;30.00;;;;;;;;;;5016132;28;20444;-86
2022/03/23 02:23:21;;;;;;;35.27;32.37;;;;;;;;;;5017046;28;20817;-86
2022/03/23 02:25:49;;;;;;;33.67;31.08;;;;;;;;;;5016290;28;20423;-86
2022/03/23 02:28:17;;;;;;;34.00;31.48;;;;;;;;;;4998839;28;20269;-85
2022/03/23 02:30:45;;;;;;;34.27;31.60;;;;;;;;;;5016248;28;20194;-86
2022/03/23 02:33:12;;;;;;;33.47;30.87;;;;;;;;;;5016574;28;20496;-86
2022/03/23 02:35:40;;;;;;;32.73;30.20;;;;;;;;;;5016078;28;20538;-86
2022/03/23 02:38:08;;;;;;;34.78;31.98;;;;;;;;;;5016173;28;20493;-85
2022/03/23 02:40:36;;;;;;;35.00;32.10;;;;;;;;;;5016381;28;20193;-86
2022/03/23 02:43:04;;;;;;;33.75;31.17;;;;;;;;;;5016384;28;20437;-86
2022/03/23 02:45:31;;;;;;;33.13;30.53;;;;;;;;;;5016360;28;20194;-86
2022/03/23 02:47:58;;;;;;;34.73;31.73;;;;;;;;;;5016012;28;20441;-87
2022/03/23 02:50:26;;;;;;;34.95;32.05;;;;;;;;;;5016181;28;20440;-86
2022/03/23 03:04:03;;;;;;;33.40;30.60;;;;;;;;;;5015917;28;20432;-85
2022/03/23 03:06:31;;;;;;;33.20;30.70;;;;;;;;;;5015447;28;20958;-85
2022/03/23 03:09:00;;;;;;;33.03;30.50;;;;;;;;;;5015823;28;20440;-85
2022/03/23 03:11:29;;;;;;;33.42;30.55;;;;;;;;;;5015722;28;20843;-85
2022/03/23 03:13:56;;;;;;;33.90;31.15;;;;;;;;;;5015333;28;20690;-85
2022/03/23 03:16:24;;;;;;;35.55;32.58;;;;;;;;;;5015182;28;20187;-85
2022/03/23 03:18:51;;;;;;;34.38;31.58;;;;;;;;;;5015507;28;20197;-85
2022/03/23 03:21:19;;;;;;;33.28;30.58;;;;;;;;;;5015421;28;20271;-85
2022/03/23 03:23:47;;;;;;;33.88;31.25;;;;;;;;;;5015212;28;20206;-84
2022/03/23 03:26:15;;;;;;;35.22;32.22;;;;;;;;;;5014972;28;20656;-85
2022/03/23 03:28:45;;;;;;;35.15;32.22;;;;;;;;;;5015264;28;20217;-85
2022/03/23 03:31:13;;;;;;;33.95;31.15;;;;;;;;;;5014866;28;20198;-85
2022/03/23 03:33:40;;;;;;;33.08;30.40;;;;;;;;;;5015356;28;20229;-85
2022/03/23 03:36:08;;;;;;;33.72;30.83;;;;;;;;;;5014791;28;20664;-84
2022/03/23 03:38:36;;;;;;;33.83;31.30;;;;;;;;;;5015045;28;20608;-85
2022/03/23 03:41:04;;;;;;;34.22;31.42;;;;;;;;;;5014868;28;20197;-85
2022/03/23 03:43:31;;;;;;;33.85;31.15;;;;;;;;;;5015112;28;20191;-85
2022/03/23 03:46:00;;;;;;;33.97;31.35;;;;;;;;;;5015104;28;20190;-85
2022/03/23 03:48:28;;;;;;;34.10;31.10;;;;;;;;;;5014670;28;20194;-84
2022/03/23 03:50:55;;;;;;;35.15;31.88;;;;;;;;;;5014859;28;20190;-85
2022/03/23 03:53:23;;;;;;;34.85;32.05;;;;;;;;;;5014744;28;20198;-85
2022/03/23 03:55:50;;;;;;;35.80;32.67;;;;;;;;;;5014658;28;20229;-85
2022/03/23 03:58:18;;;;;;;34.88;32.22;;;;;;;;;;5014546;28;20202;-85
2022/03/23 04:00:46;;;;;;;32.45;29.85;;;;;;;;;;5014617;28;20649;-85
2022/03/23 04:03:15;;;;;;;34.08;31.38;;;;;;;;;;5014647;28;20198;-85
2022/03/23 04:05:42;;;;;;;33.77;31.17;;;;;;;;;;5014521;28;20581;-85
2022/03/23 04:08:10;;;;;;;34.10;31.25;;;;;;;;;;5014845;28;20499;-85
2022/03/23 04:10:37;;;;;;;34.00;31.10;;;;;;;;;;5014591;28;20193;-84
2022/03/23 04:13:07;;;;;;;35.10;32.08;;;;;;;;;;5014648;28;20247;-85
2022/03/23 04:15:35;;;;;;;37.15;33.42;;;;;;;;;;5014276;28;20217;-86
2022/03/23 04:18:02;;;;;;;34.08;31.13;;;;;;;;;;5014512;28;20624;-84
2022/03/23 04:20:31;;;;;;;34.85;31.88;;;;;;;;;;4996736;28;20660;-85
2022/03/23 04:22:59;;;;;;;34.42;31.27;;;;;;;;;;5014552;28;20186;-85
2022/03/23 04:25:26;;;;;;;34.28;31.48;;;;;;;;;;5014279;28;20217;-85
2022/03/23 04:27:56;;;;;;;32.60;30.15;;;;;;;;;;5014009;28;20186;-85
2022/03/23 04:30:24;;;;;;;33.53;30.92;;;;;;;;;;5014192;28;20186;-85
2022/03/23 04:32:53;;;;;;;33.33;30.63;;;;;;;;;;5014228;28;20280;-85
2022/03/23 04:35:22;;;;;;;34.50;31.70;;;;;;;;;;4996684;28;20232;-84
2022/03/23 04:37:51;;;;;;;35.83;32.83;;;;;;;;;;4996319;28;20240;-85
2022/03/23 04:40:18;;;;;;;34.53;31.73;;;;;;;;;;5013783;28;20237;-84
2022/03/23 04:42:46;;;;;;;35.15;32.13;;;;;;;;;;5013204;28;20281;-85
2022/03/23 04:45:14;;;;;;;36.15;33.25;;;;;;;;;;5013438;28;20206;-84
2022/03/23 04:47:43;;;;;;;33.67;30.88;;;;;;;;;;5013739;28;20198;-84
2022/03/23 04:50:11;;;;;;;34.35;31.75;;;;;;;;;;5013964;28;20198;-85
2022/03/23 04:52:39;;;;;;;33.58;30.63;;;;;;;;;;5014199;28;20314;-85
2022/03/23 04:55:09;;;;;;;35.70;32.50;;;;;;;;;;5013699;28;20268;-85
2022/03/23 04:57:37;;;;;;;33.97;30.92;;;;;;;;;;5013464;28;20285;-85
2022/03/23 05:00:05;;;;;;;34.47;31.48;;;;;;;;;;5013691;28;20202;-85
2022/03/23 05:02:32;;;;;;;33.45;30.67;;;;;;;;;;5013608;28;20194;-85
2022/03/23 05:04:59;;;;;;;35.92;32.83;;;;;;;;;;5013519;28;20201;-85
2022/03/23 05:07:27;;;;;;;35.85;32.70;;;;;;;;;;4996297;28;20260;-85
2022/03/23 05:09:54;;;;;;;33.80;30.90;;;;;;;;;;5013879;28;20193;-85
2022/03/23 05:12:23;;;;;;;35.50;32.40;;;;;;;;;;5013840;28;20213;-85
2022/03/23 05:14:50;;;;;;;36.00;32.88;;;;;;;;;;5013587;28;20229;-85
2022/03/23 05:17:18;;;;;;;35.63;32.63;;;;;;;;;;5013873;28;20197;-85
2022/03/23 05:19:45;;;;;;;34.35;31.45;;;;;;;;;;5013533;28;20194;-85
2022/03/23 05:22:13;;;;;;;38.15;34.33;;;;;;;;;;5013432;28;20190;-84
2022/03/23 05:24:41;;;;;;;36.10;32.88;;;;;;;;;;5013391;28;20641;-85
2022/03/23 05:27:08;;;;;;;35.13;32.22;;;;;;;;;;5013111;28;20190;-85
2022/03/23 05:29:37;;;;;;;37.72;34.55;;;;;;;;;;4996331;28;20552;-85
2022/03/23 05:32:06;;;;;;;36.25;33.20;;;;;;;;;;5013295;28;20637;-85
2022/03/23 05:34:33;;;;;;;34.17;31.17;;;;;;;;;;5013426;28;20268;-84
2022/03/23 05:37:00;;;;;;;36.60;33.25;;;;;;;;;;5013506;28;20187;-84
2022/03/23 05:39:28;;;;;;;35.90;33.03;;;;;;;;;;5013118;28;20241;-84
2022/03/23 05:41:55;;;;;;;34.30;31.60;;;;;;;;;;5013288;28;20198;-82
2022/03/23 05:44:22;;;;;;;35.20;32.00;;;;;;;;;;5012848;28;20651;-82
2022/03/23 05:46:51;;;;;;;35.05;32.10;;;;;;;;;;5012613;28;20194;-82
2022/03/23 05:49:18;;;;;;;34.75;31.75;;;;;;;;;;5012884;28;20202;-85
2022/03/23 05:51:46;;;;;;;36.08;33.00;;;;;;;;;;5013265;28;20198;-85
2022/03/23 05:54:13;;;;;;;34.22;31.08;;;;;;;;;;5015434;28;20191;-82
2022/03/23 05:56:40;;;;;;;36.75;33.50;;;;;;;;;;5016060;28;20240;-81
2022/03/23 05:59:08;;;;;;;34.55;31.63;;;;;;;;;;5016403;28;20187;-81
2022/03/23 06:01:35;;;;;;;33.70;30.73;;;;;;;;;;5016439;28;20651;-81
2022/03/23 06:04:04;;;;;;;34.85;31.65;;;;;;;;;;5016868;28;20186;-82
2022/03/23 06:06:31;;;;;;;35.85;32.85;;;;;;;;;;5015829;28;20221;-82
2022/03/23 06:08:59;;;;;;;38.55;35.38;;;;;;;;;;5016435;28;20273;-83
2022/03/23 06:11:26;;;;;;;36.75;33.72;;;;;;;;;;5016140;28;20205;-82
2022/03/23 06:13:53;;;;;;;36.13;32.97;;;;;;;;;;5016079;28;20260;-82
2022/03/23 06:16:21;;;;;;;35.53;32.50;;;;;;;;;;5015735;28;20240;-82
2022/03/23 06:18:48;;;;;;;34.72;31.83;;;;;;;;;;5015882;28;20198;-82
2022/03/23 06:21:17;;;;;;;37.95;34.05;;;;;;;;;;5015695;28;20190;-81
2022/03/23 06:23:44;;;;;;;35.78;32.75;;;;;;;;;;5015920;28;20194;-82
2022/03/23 06:26:12;;;;;;;37.38;34.30;;;;;;;;;;5015968;28;20202;-81
2022/03/23 06:28:39;;;;;;;35.15;32.15;;;;;;;;;;5015491;28;20591;-82
2022/03/23 06:31:07;;;;;;;34.72;31.52;;;;;;;;;;5015621;28;20194;-82
2022/03/23 06:33:34;;;;;;;35.63;32.53;;;;;;;;;;4998511;28;20195;-82
2022/03/23 06:36:02;;;;;;;35.17;32.28;;;;;;;;;;5015492;28;20229;-81
2022/03/23 06:38:31;;;;;;;35.08;32.20;;;;;;;;;;5015316;28;20712;-82
2022/03/23 06:40:58;;;;;;;34.97;32.10;;;;;;;;;;5015306;28;20530;-82
2022/03/23 06:43:26;;;;;;;35.53;32.60;;;;;;;;;;5015692;28;20731;-82
2022/03/23 06:45:54;;;;;;;36.88;33.50;;;;;;;;;;5015442;28;20225;-82
2022/03/23 06:48:21;;;;;;;40.03;36.08;;;;;;;;;;5015487;28;20206;-81
2022/03/23 06:50:48;;;;;;;38.20;34.65;;;;;;;;;;5015068;28;20248;-82
2022/03/23 06:53:15;;;;;;;38.13;34.67;;;;;;;;;;5015471;28;20205;-81
2022/03/23 06:55:44;;;;;;;36.73;33.57;;;;;;;;;;5015028;28;20233;-82
2022/03/23 06:58:12;;;;;;;36.57;33.47;;;;;;;;;;5014984;28;20885;-81
2022/03/23 07:00:39;;;;;;;38.47;34.90;;;;;;;;;;5014938;28;20441;-82
2022/03/23 07:03:08;;;;;;;38.63;35.42;;;;;;;;;;5015273;28;20524;-82
2022/03/23 07:05:36;;;;;;;38.50;35.00;;;;;;;;;;5014405;28;20198;-82
2022/03/23 07:10:50;;;;;;;37.50;34.30;;;;;;;;;;5014881;28;20244;-82
2022/03/23 07:13:18;;;;;;;36.55;33.28;;;;;;;;;;5014861;28;20206;-82
2022/03/23 07:15:46;;;;;;;38.72;35.33;;;;;;;;;;5014690;28;20222;-82
2022/03/23 07:18:14;;;;;;;40.70;37.13;;;;;;;;;;5014951;28;20552;-82
2022/03/23 07:20:41;;;;;;;38.70;35.25;;;;;;;;;;5014711;28;20461;-82
2022/03/23 07:23:09;;;;;;;79.80;51.55;;;;;;;;;;5014599;28;20601;-82
2022/03/23 07:25:36;;;;;;;37.23;34.13;;;;;;;;;;5014643;28;20648;-82
2022/03/23 07:28:05;;;;;;;36.27;33.27;;;;;;;;;;5014653;28;20448;-82
2022/03/23 07:30:35;;;;;;;36.85;33.55;;;;;;;;;;5014414;28;20433;-82
2022/03/23 07:33:02;;;;;;;37.63;34.40;;;;;;;;;;5014246;28;20206;-81
2022/03/23 07:35:29;;;;;;;48.60;43.45;;;;;;;;;;5014165;28;20488;-82
2022/03/23 07:37:57;;;;;;;39.00;35.70;;;;;;;;;;5014125;28;20217;-81
2022/03/23 07:40:24;;;;;;;37.93;34.43;;;;;;;;;;5014227;28;20433;-82
2022/03/23 07:42:51;;;;;;;84.17;56.93;;;;;;;;;;5014261;28;20448;-83
2022/03/23 07:45:20;;;;;;;37.33;34.03;;;;;;;;;;5014563;28;20441;-82
2022/03/23 07:47:47;;;;;;;37.03;34.00;;;;;;;;;;5014346;28;20446;-82
2022/03/23 07:50:15;;;;;;;38.70;35.37;;;;;;;;;;5014140;28;20437;-82
2022/03/23 07:52:42;;;;;;;38.43;35.20;;;;;;;;;;5014176;28;20476;-83
2022/03/23 07:55:10;;;;;;;37.50;34.07;;;;;;;;;;5013833;28;20497;-82
2022/03/23 07:57:37;;;;;;;37.73;34.53;;;;;;;;;;5014156;28;20449;-82
2022/03/23 08:00:05;;;;;;;38.87;35.57;;;;;;;;;;5014165;28;20448;-83
2022/03/23 08:02:34;;;;;;;39.77;36.20;;;;;;;;;;5014256;28;20533;-82
2022/03/23 08:05:02;;;;;;;61.37;52.80;;;;;;;;;;5015525;28;20437;-82
2022/03/23 08:07:30;;;;;;;37.90;34.57;;;;;;;;;;5014667;28;20891;-83
2022/03/23 08:09:57;;;;;;;37.97;34.77;;;;;;;;;;5014837;28;20515;-83
2022/03/23 08:12:25;;;;;;;38.13;34.90;;;;;;;;;;5014857;28;20429;-82
2022/03/23 08:14:52;;;;;;;37.83;34.73;;;;;;;;;;5015045;28;20419;-81
2022/03/23 08:17:20;;;;;;;36.60;33.43;;;;;;;;;;5014777;28;20441;-83
2022/03/23 08:20:32;;;;;;;38.00;35.00;;;;;;;;;;5014763;28;20432;-81
2022/03/23 08:22:36;;;;;;;64.13;57.07;;;;;;;;;;5014491;28;20552;-83
2022/03/23 08:25:04;;;;;;;43.07;39.10;;;;;;;;;;5015440;28;20448;-84
2022/03/23 08:27:31;;;;;;;37.00;33.90;;;;;;;;;;5015804;28;20441;-83
2022/03/23 08:29:58;;;;;;;38.70;35.53;;;;;;;;;;5014656;28;20440;-83
2022/03/23 08:32:26;;;;;;;37.50;34.43;;;;;;;;;;4997075;28;20461;-85
2022/03/23 08:34:55;;;;;;;36.80;33.80;;;;;;;;;;5013701;28;20837;-83
2022/03/23 08:37:22;;;;;;;37.27;34.30;;;;;;;;;;5013662;28;20441;-82
2022/03/23 08:39:50;;;;;;;36.03;32.97;;;;;;;;;;5014156;28;20484;-84
2022/03/23 08:42:17;;;;;;;39.40;36.10;;;;;;;;;;4995995;28;20495;-83
2022/03/23 08:44:45;;;;;;;38.00;34.90;;;;;;;;;;5013701;28;20419;-83
2022/03/23 08:47:12;;;;;;;37.27;34.10;;;;;;;;;;5013599;28;20457;-84
2022/03/23 08:49:40;;;;;;;40.70;37.10;;;;;;;;;;5013509;28;20453;-83
2022/03/23 08:52:09;;;;;;;37.43;34.30;;;;;;;;;;5013426;28;20437;-83
2022/03/23 08:54:36;;;;;;;38.90;35.80;;;;;;;;;;5013387;28;20923;-83
2022/03/23 08:57:03;;;;;;;37.47;34.40;;;;;;;;;;5013453;28;20496;-83
2022/03/23 08:59:31;;;;;;;38.53;35.43;;;;;;;;;;4995902;28;20449;-83
2022/03/23 09:01:58;;;;;;;38.93;35.70;;;;;;;;;;5013641;28;20575;-83
2022/03/23 09:04:26;;;;;;;40.90;37.13;;;;;;;;;;5013399;28;20921;-83
2022/03/23 09:06:53;;;;;;;40.00;36.70;;;;;;;;;;5013340;28;20412;-84
2022/03/23 09:09:22;;;;;;;38.70;35.70;;;;;;;;;;5013503;28;20456;-86
2022/03/23 09:11:49;;;;;;;38.20;35.20;;;;;;;;;;4996082;28;20441;-82
2022/03/23 09:14:17;;;;;;;40.33;37.13;;;;;;;;;;5012926;28;20434;-82
2022/03/23 09:16:44;;;;;;;39.73;36.13;;;;;;;;;;4995487;28;20847;-82
2022/03/23 09:19:12;;;;;;;37.70;34.73;;;;;;;;;;5013332;28;20982;-82
2022/03/23 09:21:39;;;;;;;61.33;56.20;;;;;;;;;;5013575;28;20446;-83
2022/03/23 09:24:07;;;;;;;36.93;34.03;;;;;;;;;;5013013;28;20460;-83
2022/03/23 09:26:36;;;;;;;38.67;35.60;;;;;;;;;;5014934;28;20467;-86
2022/03/23 09:29:03;;;;;;;36.37;33.40;;;;;;;;;;5016618;28;20438;-85
2022/03/23 09:31:30;;;;;;;46.37;42.30;;;;;;;;;;5019311;28;20468;-87
2022/03/23 09:33:58;;;;;;;35.07;32.43;;;;;;;;;;5018350;28;20433;-84
2022/03/23 09:39:06;;;;;;;38.33;35.20;;;;;;;;;;5015565;28;20531;-81
2022/03/23 09:41:34;;;;;;;37.77;34.60;;;;;;;;;;5016590;28;20773;-80
2022/03/23 09:44:06;;;;;;;37.97;34.90;;;;;;;;;;5016268;28;20426;-81
2022/03/23 09:46:34;;;;;;;35.67;32.93;;;;;;;;;;5016587;28;20453;-82
2022/03/23 09:49:02;;;;;;;133.97;90.77;;;;;;;;;;5016601;28;20412;-82
2022/03/23 09:51:32;;;;;;;36.30;33.60;;;;;;;;;;5016440;28;20408;-82
2022/03/23 09:54:00;;;;;;;38.13;35.00;;;;;;;;;;4999745;28;20484;-84
2022/03/23 09:56:27;;;;;;;38.07;35.07;;;;;;;;;;5016911;28;20518;-84
2022/03/23 09:58:54;;;;;;;36.27;33.47;;;;;;;;;;5017035;28;20448;-84
2022/03/23 10:01:59;;;;;;;38.40;35.07;;;;;;;;;;5016319;28;20822;-84
2022/03/23 10:04:55;;;;;;;37.70;34.60;;;;;;;;;;5016433;28;20464;-83
2022/03/23 10:07:25;;;;;;;115.03;88.23;;;;;;;;;;5016719;28;20427;-87
2022/03/23 10:10:09;;;;;;;37.27;34.30;;;;;;;;;;5017403;28;20416;-87
2022/03/23 10:13:00;;;;;;;37.47;34.57;;;;;;;;;;5016702;28;20437;-87
2022/03/23 10:15:57;;;;;;;36.30;33.40;;;;;;;;;;5016550;28;20487;-87
2022/03/23 10:18:36;;;;;;;36.43;33.40;;;;;;;;;;4937551;29;20453;-88
2022/03/23 10:21:05;;;;;;;39.07;35.80;;;;;;;;;;4937802;29;20495;-88
2022/03/23 10:23:33;;;;;;;36.43;33.13;;;;;;;;;;4937806;29;20415;-88
2022/03/23 10:26:11;;;;;;;35.17;32.37;;;;;;;;;;4919860;29;20431;-84
2022/03/23 10:28:39;;;;;;;35.40;32.70;;;;;;;;;;4936420;29;20527;-84
2022/03/23 10:31:15;;;;;;;37.10;34.00;;;;;;;;;;4936313;29;20441;-84
2022/03/23 10:33:43;;;;;;;37.93;34.67;;;;;;;;;;4936525;29;20454;-84
2022/03/23 10:36:12;;;;;;;35.97;33.20;;;;;;;;;;4937091;29;20471;-87
2022/03/23 10:38:40;;;;;;;36.37;32.87;;;;;;;;;;4936899;29;20527;-87
2022/03/23 10:41:09;;;;;;;36.10;33.30;;;;;;;;;;4935684;29;20528;-87
2022/03/23 10:43:37;;;;;;;36.20;33.20;;;;;;;;;;4937058;29;20850;-86
2022/03/23 10:46:08;;;;;;;35.43;32.50;;;;;;;;;;4936076;29;20427;-84
2022/03/23 10:48:36;;;;;;;37.60;34.50;;;;;;;;;;4935978;29;20880;-82
2022/03/23 10:51:04;;;;;;;36.57;33.37;;;;;;;;;;4936079;29;20496;-84
2022/03/23 10:53:38;;;;;;;36.67;33.77;;;;;;;;;;4972835;28;20545;-84
2022/03/23 10:56:06;;;;;;;36.53;33.53;;;;;;;;;;4976557;28;20469;-90
2022/03/23 10:58:35;;;;;;;37.97;34.87;;;;;;;;;;4973866;28;20425;-85
2022/03/23 11:01:03;;;;;;;37.10;33.50;;;;;;;;;;4976300;28;20427;-87
2022/03/23 11:03:41;;;;;;;36.80;33.70;;;;;;;;;;4977660;28;20775;-88
2022/03/23 11:06:09;;;;;;;37.20;34.10;;;;;;;;;;4975198;28;20428;-86
2022/03/23 11:08:38;;;;;;;36.90;34.00;;;;;;;;;;4976879;28;20912;-86
2022/03/23 11:16:41;;;;;;;37.77;34.60;;;;;;;;;;4976659;28;20469;-87
2022/03/23 11:19:09;;;;;;;36.67;33.60;;;;;;;;;;4976572;28;20439;-89
2022/03/23 11:21:57;;;;;;;38.00;34.90;;;;;;;;;;4976677;28;20447;-88
2022/03/23 11:24:26;;;;;;;37.20;34.17;;;;;;;;;;4976333;28;20434;-89
2022/03/23 11:26:55;;;;;;;35.43;32.47;;;;;;;;;;4975021;28;20455;-89
2022/03/23 11:29:22;;;;;;;39.07;36.07;;;;;;;;;;4976658;28;20459;-89
2022/03/23 11:31:52;;;;;;;68.57;63.97;;;;;;;;;;4976334;28;20434;-90
2022/03/23 11:34:21;;;;;;;175.67;164.20;;;;;;;;;;4976728;28;20812;-89
2022/03/23 11:36:49;;;;;;;39.30;36.00;;;;;;;;;;4976103;28;20489;-88
2022/03/23 11:39:17;;;;;;;38.10;34.90;;;;;;;;;;5000233;28;20492;-89
2022/03/23 11:41:46;;;;;;;37.27;34.20;;;;;;;;;;5015360;28;20950;-88
2022/03/23 11:44:16;;;;;;;37.80;34.70;;;;;;;;;;5015115;28;20431;-88
2022/03/23 11:46:44;;;;;;;39.20;35.80;;;;;;;;;;5014958;28;20474;-84
2022/03/23 11:49:15;;;;;;;37.47;34.47;;;;;;;;;;5014334;28;20461;-84
2022/03/23 11:52:00;;;;;;;38.83;35.63;;;;;;;;;;5014064;28;20786;-85
2022/03/23 11:55:36;;;;;;;40.17;36.70;;;;;;;;;;5013948;28;20937;-84
2022/03/23 11:57:20;;;;;;;39.83;36.40;;;;;;;;;;5013575;28;20484;-84
2022/03/23 11:59:48;;;;;;;40.10;36.50;;;;;;;;;;5014346;28;20451;-85
2022/03/23 12:02:18;;;;;;;37.30;34.20;;;;;;;;;;5014793;28;20923;-84
2022/03/23 12:04:46;;;;;;;38.03;34.93;;;;;;;;;;5015787;28;20451;-83
2022/03/23 12:07:13;;;;;;;39.40;36.10;;;;;;;;;;5014561;28;20766;-84
2022/03/23 12:09:42;;;;;;;37.90;34.80;;;;;;;;;;5014466;28;20800;-84
2022/03/23 12:12:13;;;;;;;38.93;35.63;;;;;;;;;;5016008;28;20564;-84
2022/03/23 12:14:43;;;;;;;37.77;34.77;;;;;;;;;;5015696;28;20407;-84
2022/03/23 12:17:15;;;;;;;40.50;36.90;;;;;;;;;;5015156;28;20477;-84
2022/03/23 12:20:05;;;;;;;39.37;36.13;;;;;;;;;;5014812;28;20452;-83
2022/03/23 12:22:47;;;;;;;38.23;35.10;;;;;;;;;;5014631;28;20441;-83
2022/03/23 12:25:16;;;;;;;37.47;34.17;;;;;;;;;;4997519;28;20461;-84
2022/03/23 12:27:48;;;;;;;40.10;36.50;;;;;;;;;;5013328;28;20931;-84
2022/03/23 12:30:18;;;;;;;40.07;36.63;;;;;;;;;;5013601;28;20448;-84
2022/03/23 12:32:46;;;;;;;39.70;36.40;;;;;;;;;;5014194;28;20508;-84
2022/03/23 12:35:13;;;;;;;40.33;36.93;;;;;;;;;;5014136;28;20842;-84
2022/03/23 12:37:41;;;;;;;37.63;34.37;;;;;;;;;;5013760;28;20487;-83
2022/03/23 12:40:10;;;;;;;38.20;35.10;;;;;;;;;;5013170;28;20488;-84
2022/03/23 12:42:41;;;;;;;37.07;33.77;;;;;;;;;;5013345;28;20433;-84
2022/03/23 12:45:11;;;;;;;40.40;37.07;;;;;;;;;;5013671;28;20453;-84
2022/03/23 12:47:49;;;;;;;39.10;36.00;;;;;;;;;;5013253;28;20435;-84
2022/03/23 12:58:32;;;;;;;38.93;35.83;;;;;;;;;;5013091;28;20451;-85
2022/03/23 13:01:10;;;;;;;37.47;34.33;;;;;;;;;;5013034;28;20430;-83
2022/03/23 13:03:52;;;;;;;36.43;33.30;;;;;;;;;;5012491;28;20407;-84
2022/03/23 13:06:22;;;;;;;39.97;36.27;;;;;;;;;;5013234;28;20415;-84
2022/03/23 13:08:51;;;;;;;39.00;35.70;;;;;;;;;;5013813;28;20419;-84
2022/03/23 13:11:24;;;;;;;38.30;35.03;;;;;;;;;;5013425;28;20771;-84
2022/03/23 13:13:53;;;;;;;37.97;34.70;;;;;;;;;;5014279;28;20798;-83
2022/03/23 13:16:22;;;;;;;39.23;35.07;;;;;;;;;;5013583;28;20435;-85
2022/03/23 13:18:50;;;;;;;38.93;35.70;;;;;;;;;;5013634;28;20524;-84
2022/03/23 13:21:20;;;;;;;39.43;36.07;;;;;;;;;;5014051;28;20472;-83
2022/03/23 13:23:50;;;;;;;39.30;35.73;;;;;;;;;;5013032;28;20468;-84
2022/03/23 13:26:19;;;;;;;38.27;35.13;;;;;;;;;;5014637;28;20414;-84
2022/03/23 13:28:48;;;;;;;39.30;36.13;;;;;;;;;;5013694;28;20445;-83
2022/03/23 13:31:15;;;;;;;39.77;36.67;;;;;;;;;;5013979;28;20424;-84
2022/03/23 13:33:44;;;;;;;45.47;42.03;;;;;;;;;;5013213;28;20419;-84
2022/03/23 13:36:14;;;;;;;40.70;37.20;;;;;;;;;;5013354;28;20433;-84
2022/03/23 13:38:42;;;;;;;37.90;34.87;;;;;;;;;;5013106;28;20540;-84
2022/03/23 13:43:57;;;;;;;40.47;37.10;;;;;;;;;;5013187;28;20428;-84
2022/03/23 13:46:25;;;;;;;40.93;37.57;;;;;;;;;;4995617;28;20432;-91
2022/03/23 13:48:58;;;;;;;39.97;36.20;;;;;;;;;;5014076;28;20434;-84
2022/03/23 13:51:31;;;;;;;41.37;37.97;;;;;;;;;;5014221;28;20437;-83
2022/03/23 13:53:59;;;;;;;40.73;37.30;;;;;;;;;;5014036;28;20454;-83
2022/03/23 13:56:28;;;;;;;41.93;37.53;;;;;;;;;;5014556;28;20455;-85
2022/03/23 13:58:56;;;;;;;38.23;35.03;;;;;;;;;;4996693;28;21367;-85
2022/03/23 14:01:24;;;;;;;39.77;36.10;;;;;;;;;;5014179;28;20449;-85
2022/03/23 14:03:52;;;;;;;39.80;36.60;;;;;;;;;;5013347;28;20454;-85
2022/03/23 14:06:20;;;;;;;41.07;37.30;;;;;;;;;;5013348;28;20452;-85
2022/03/23 14:08:54;;;;;;;39.80;36.70;;;;;;;;;;5013743;28;20464;-85
2022/03/23 14:11:47;;;;;;;40.00;36.50;;;;;;;;;;5013696;28;20539;-84
2022/03/23 14:14:13;;;;;;;41.17;37.77;;;;;;;;;;5013259;28;20449;-85
2022/03/23 14:16:40;;;;;;;36.90;33.77;;;;;;;;;;5016492;28;20481;-84
2022/03/23 14:19:08;;;;;;;39.07;35.70;;;;;;;;;;5016662;28;20843;-85
2022/03/23 14:21:36;;;;;;;40.30;36.93;;;;;;;;;;5016408;28;20441;-85
2022/03/23 14:24:03;;;;;;;40.80;37.33;;;;;;;;;;5017114;28;20414;-84
2022/03/23 14:26:33;;;;;;;39.43;36.13;;;;;;;;;;5016369;28;20412;-85
2022/03/23 14:29:01;;;;;;;41.20;37.70;;;;;;;;;;5016072;28;21005;-85
2022/03/23 14:31:30;;;;;;;39.20;36.30;;;;;;;;;;5016408;28;20474;-85
2022/03/23 14:34:05;;;;;;;42.93;39.00;;;;;;;;;;5015864;28;20431;-84
2022/03/23 14:36:32;;;;;;;40.50;37.03;;;;;;;;;;5016162;28;20478;-85
2022/03/23 14:39:00;;;;;;;41.60;38.30;;;;;;;;;;5015198;28;20478;-85
2022/03/23 14:41:28;;;;;;;41.60;37.90;;;;;;;;;;5016598;28;20474;-84
2022/03/23 14:43:56;;;;;;;40.23;36.93;;;;;;;;;;5015996;28;20433;-85
2022/03/23 14:46:24;;;;;;;40.50;37.10;;;;;;;;;;5016145;28;20537;-84
2022/03/23 14:49:04;;;;;;;42.30;38.43;;;;;;;;;;5016259;28;20449;-83
2022/03/23 14:51:32;;;;;;;41.20;37.80;;;;;;;;;;5015753;28;20419;-84
2022/03/23 14:53:59;;;;;;;40.03;36.90;;;;;;;;;;5015726;28;21096;-84
2022/03/23 14:56:26;;;;;;;39.17;35.93;;;;;;;;;;5015943;28;20774;-84
2022/03/23 14:58:57;;;;;;;43.03;39.37;;;;;;;;;;4982066;28;20468;-84